Time;durP1;ratioP1;P1;durP2;ratioP2;P2;SDS_P1;SDS_P2;PMS_P1;PMS_P2;Temp;Humidity;BMP_temperature;BMP_pressure;BME280_temperature;BME280_humidity;BME280_pressure;Samples;Min_cycle;Max_cycle;Signal;HPM_P1;HPM_P2
2021/04/12 00:04:04;;;;;;;2.95;2.10;;;;;;;22.88;32.65;95533.47;4518386;26;20135;-70
2021/04/12 00:06:37;;;;;;;3.10;2.10;;;;;;;22.89;32.32;95532.22;4975361;28;20052;-71
2021/04/12 00:09:07;;;;;;;3.10;2.08;;;;;;;22.86;32.63;95534.44;4991557;28;20108;-71
2021/04/12 00:11:32;;;;;;;3.50;2.00;;;;;;;22.85;32.81;95538.41;4975214;28;20429;-71
2021/04/12 00:14:03;;;;;;;3.13;2.17;;;;;;;22.87;32.52;95530.47;5008879;28;20032;-70
2021/04/12 00:16:30;;;;;;;2.80;2.05;;;;;;;22.75;32.60;95518.06;4991124;28;20508;-70
2021/04/12 00:19:07;;;;;;;3.35;2.10;;;;;;;22.85;32.63;95527.50;4991380;28;20075;-71
2021/04/12 00:21:40;;;;;;;2.83;2.22;;;;;;;22.81;32.60;95532.44;4991171;28;20038;-71
2021/04/12 00:24:28;;;;;;;2.78;1.83;;;;;;;22.80;32.74;95531.72;4975733;28;20414;-71
2021/04/12 00:27:13;;;;;;;4.40;2.20;;;;;;;22.62;32.90;95510.38;4991230;28;20032;-71
2021/04/12 00:29:55;;;;;;;3.88;2.08;;;;;;;22.79;32.77;95540.38;4977122;28;20502;-71
2021/04/12 00:32:39;;;;;;;2.67;1.80;;;;;;;22.78;32.93;95533.41;4976739;28;20526;-71
2021/04/12 00:35:33;;;;;;;3.13;2.00;;;;;;;22.76;32.86;95530.47;4975047;28;20081;-71
2021/04/12 00:38:07;;;;;;;3.35;2.30;;;;;;;22.77;32.87;95537.41;5008646;28;20025;-70
2021/04/12 00:40:57;;;;;;;3.05;2.00;;;;;;;22.76;32.92;95541.34;4991324;28;20040;-71
2021/04/12 00:43:27;;;;;;;3.20;2.25;;;;;;;22.76;32.99;95531.19;4993443;28;20822;-71
2021/04/12 00:46:22;;;;;;;3.38;2.13;;;;;;;22.72;32.71;95529.94;4990918;28;20486;-71
2021/04/12 00:49:24;;;;;;;3.00;1.90;;;;;;;22.72;33.04;95529.94;4993610;28;20042;-70
2021/04/12 00:51:59;;;;;;;3.50;2.20;;;;;;;22.73;33.01;95526.00;5008445;28;20209;-71
2021/04/12 00:54:36;;;;;;;3.17;1.77;;;;;;;22.72;32.86;95529.94;5008698;28;20026;-71
2021/04/12 00:57:06;;;;;;;3.90;2.22;;;;;;;22.73;33.03;95523.28;4990817;28;20032;-71
2021/04/12 00:59:40;;;;;;;2.70;1.75;;;;;;;22.71;33.09;95512.16;4974851;28;20506;-71
2021/04/12 01:02:11;;;;;;;2.72;1.88;;;;;;;22.71;32.99;95528.47;4991199;28;20033;-70
2021/04/12 01:04:56;;;;;;;2.72;1.67;;;;;;;22.71;33.04;95533.91;4987492;28;20204;-71
2021/04/12 01:07:50;;;;;;;4.18;2.08;;;;;;;22.70;32.89;95533.16;4987914;28;20547;-72
2021/04/12 01:10:23;;;;;;;2.60;2.10;;;;;;;22.69;33.10;95526.25;4992703;28;20420;-71
2021/04/12 01:12:59;;;;;;;2.85;1.83;;;;;;;22.68;33.03;95521.28;4991285;28;20026;-71
2021/04/12 01:15:25;;;;;;;3.33;1.80;;;;;;;22.66;33.22;95521.03;4991464;28;20093;-71
2021/04/12 01:17:53;;;;;;;3.00;2.10;;;;;;;22.64;32.99;95518.78;4992679;28;20034;-71
2021/04/12 01:20:59;;;;;;;4.75;2.03;;;;;;;22.64;33.11;95518.78;4991215;28;20041;-72
2021/04/12 01:24:02;;;;;;;2.85;1.83;;;;;;;22.64;33.09;95523.50;4992889;28;20023;-72
2021/04/12 01:27:01;;;;;;;3.72;2.03;;;;;;;22.65;33.10;95508.66;4992692;28;20513;-71
2021/04/12 01:29:45;;;;;;;3.50;2.30;;;;;;;22.63;33.16;95511.13;4992486;28;20038;-71
2021/04/12 01:32:31;;;;;;;3.05;2.03;;;;;;;22.65;33.27;95514.13;4992200;28;20027;-71
2021/04/12 01:35:28;;;;;;;3.15;1.95;;;;;;;22.62;33.12;95515.09;4992382;28;20034;-71
2021/04/12 01:38:12;;;;;;;3.40;2.10;;;;;;;22.61;33.03;95519.03;4990523;28;20034;-71
2021/04/12 01:41:22;;;;;;;2.33;1.80;;;;;;;22.62;33.29;95520.53;4994974;28;20022;-71
2021/04/12 01:43:51;;;;;;;;;;;;;;;22.60;33.28;95517.53;4994610;28;20038;-70
2021/04/12 01:46:20;;;;;;;3.45;1.77;;;;;;;22.46;33.45;95496.75;4998730;28;20002;-71
2021/04/12 01:48:56;;;;;;;2.72;1.90;;;;;;;22.58;33.47;95520.03;5000775;28;20089;-71
2021/04/12 01:51:29;;;;;;;2.75;1.70;;;;;;;22.59;33.07;95521.53;4992550;28;20522;-71
2021/04/12 01:54:14;;;;;;;3.03;1.88;;;;;;;22.57;33.30;95518.53;4991964;28;20510;-71
2021/04/12 01:57:13;;;;;;;2.80;1.90;;;;;;;22.57;33.20;95518.53;4991252;28;20042;-72
2021/04/12 01:59:52;;;;;;;2.85;1.95;;;;;;;22.59;33.38;95521.53;4992453;28;20499;-70
2021/04/12 02:02:44;;;;;;;2.65;1.88;;;;;;;22.57;33.34;95518.53;4991746;28;20478;-72
2021/04/12 02:05:25;;;;;;;3.22;1.88;;;;;;;22.56;33.36;95512.34;4973023;28;20043;-71
2021/04/12 02:08:09;;;;;;;2.95;1.85;;;;;;;22.56;33.38;95523.25;4971712;28;20035;-71
2021/04/12 02:10:53;;;;;;;3.13;1.70;;;;;;;22.59;33.30;95516.06;4972362;28;20122;-72
2021/04/12 02:13:40;;;;;;;2.65;1.77;;;;;;;22.56;33.24;95514.34;4972350;28;20034;-71
2021/04/12 02:16:14;;;;;;;3.20;1.88;;;;;;;22.56;33.29;95525.97;4972076;28;20107;-72
2021/04/12 02:19:00;;;;;;;3.33;1.98;;;;;;;22.55;33.44;95515.56;4972019;28;20511;-72
2021/04/12 02:21:58;;;;;;;2.40;1.83;;;;;;;22.54;33.37;95514.06;4971819;28;20027;-72
2021/04/12 02:24:45;;;;;;;2.92;1.92;;;;;;;22.53;33.37;95507.16;4972103;28;20037;-72
2021/04/12 02:27:41;;;;;;;2.72;1.63;;;;;;;22.49;33.56;95499.22;4971704;28;20058;-72
2021/04/12 02:30:22;;;;;;;2.58;2.03;;;;;;;22.39;33.50;95475.47;4971830;28;20558;-71
2021/04/12 02:33:15;;;;;;;2.55;1.90;;;;;;;22.53;33.36;95502.44;4970549;28;20040;-71
2021/04/12 02:35:51;;;;;;;3.78;1.90;;;;;;;22.52;33.41;95500.22;4970715;28;20042;-71
2021/04/12 02:38:45;;;;;;;3.28;2.10;;;;;;;22.52;33.45;95494.78;4955295;28;20468;-71
2021/04/12 02:41:30;;;;;;;2.75;2.03;;;;;;;22.52;33.46;95494.78;4970246;28;20073;-71
2021/04/12 02:44:02;;;;;;;2.92;2.05;;;;;;;22.54;33.42;95495.00;4970680;28;20104;-71
2021/04/12 02:47:05;;;;;;;2.85;1.85;;;;;;;22.54;33.65;95497.75;4970276;28;20027;-71
2021/04/12 02:50:18;;;;;;;3.53;2.20;;;;;;;22.52;33.41;95486.59;4971598;28;20035;-71
2021/04/12 02:53:11;;;;;;;3.25;2.10;;;;;;;22.50;33.69;95486.38;4944928;28;20488;-71
2021/04/12 02:55:42;;;;;;;3.45;2.25;;;;;;;22.49;33.54;95487.59;4971257;28;20130;-71
2021/04/12 02:58:43;;;;;;;2.80;2.22;;;;;;;22.47;33.58;95487.34;4969750;28;20140;-72
2021/04/12 03:01:33;;;;;;;3.92;2.10;;;;;;;22.47;33.74;95488.09;4971225;28;20030;-71
2021/04/12 03:04:04;;;;;;;;;;;;;;;22.47;33.59;95481.91;4997341;28;20489;-72
2021/04/12 03:06:29;;;;;;;2.47;2.00;;;;;;;22.50;33.58;95486.38;5008955;28;20020;-72
2021/04/12 03:09:37;;;;;;;3.00;2.03;;;;;;;22.49;33.60;95495.75;5010334;28;20081;-71
2021/04/12 03:12:24;;;;;;;2.80;1.90;;;;;;;22.47;33.70;95488.09;4995577;28;20107;-71
2021/04/12 03:15:08;;;;;;;2.95;2.03;;;;;;;22.47;33.63;95487.34;5009616;28;20115;-72
2021/04/12 03:17:42;;;;;;;2.53;1.85;;;;;;;22.47;33.63;95487.34;5010100;28;20055;-72
2021/04/12 03:20:39;;;;;;;3.35;1.95;;;;;;;22.46;33.44;95488.56;5009808;28;20030;-71
2021/04/12 03:23:13;;;;;;;3.63;2.45;;;;;;;22.45;33.81;95484.34;4994871;28;20421;-71
2021/04/12 03:25:53;;;;;;;3.22;2.00;;;;;;;22.43;33.68;95486.84;5009850;28;20108;-71
2021/04/12 03:28:40;;;;;;;2.53;1.70;;;;;;;22.44;33.57;95485.59;5010049;28;20034;-71
2021/04/12 03:31:23;;;;;;;3.60;2.25;;;;;;;22.45;33.72;95482.41;4991793;28;20048;-71
2021/04/12 03:34:01;;;;;;;3.95;2.40;;;;;;;22.44;33.69;95488.34;4993802;28;20030;-71
2021/04/12 03:36:52;;;;;;;3.15;1.98;;;;;;;22.42;33.68;95491.53;4976370;28;20049;-71
2021/04/12 03:39:19;;;;;;;2.63;1.90;;;;;;;22.42;33.87;95490.81;4994516;28;20399;-71
2021/04/12 03:41:57;;;;;;;3.05;1.88;;;;;;;22.43;33.61;95486.84;4976101;28;20087;-71
2021/04/12 03:44:53;;;;;;;3.17;2.00;;;;;;;22.44;33.80;95489.06;4974590;28;20513;-71
2021/04/12 03:47:57;;;;;;;2.88;1.77;;;;;;;22.43;33.79;95492.28;4990707;28;20029;-71
2021/04/12 03:50:37;;;;;;;2.95;1.80;;;;;;;22.44;33.56;95482.88;4967225;28;20454;-71
2021/04/12 03:53:24;;;;;;;2.55;1.90;;;;;;;22.44;33.67;95483.63;4999663;28;20030;-70
2021/04/12 03:56:02;;;;;;;3.08;2.10;;;;;;;22.37;33.85;95477.91;4989622;28;20038;-71
2021/04/12 03:58:50;;;;;;;3.25;2.53;;;;;;;22.43;33.67;95481.38;4971685;28;20030;-71
2021/04/12 04:01:49;;;;;;;2.78;2.30;;;;;;;22.44;33.66;95477.44;4960911;28;20120;-70
2021/04/12 04:04:52;;;;;;;3.05;2.10;;;;;;;22.43;33.91;95475.94;4989370;28;20064;-71
2021/04/12 04:07:23;;;;;;;3.83;2.05;;;;;;;22.43;33.75;95486.84;4989622;28;20038;-70
2021/04/12 04:10:08;;;;;;;2.63;1.90;;;;;;;22.41;33.84;95475.72;4989615;28;20061;-70
2021/04/12 04:13:20;;;;;;;3.72;1.88;;;;;;;22.37;33.99;95472.47;4973230;28;20026;-70
2021/04/12 04:15:59;;;;;;;2.70;1.90;;;;;;;22.40;33.85;95484.38;4924007;28;20048;-70
2021/04/12 04:18:50;;;;;;;3.85;2.05;;;;;;;22.39;33.92;95483.63;4972664;28;20033;-70
2021/04/12 04:21:15;;;;;;;;;;;;;;;22.38;33.71;95484.84;4989851;28;20165;-70
2021/04/12 04:23:59;;;;;;;3.10;1.83;;;;;;;22.39;33.91;95480.91;4989128;28;20000;-71
2021/04/12 04:27:13;;;;;;;3.45;2.25;;;;;;;22.35;33.98;95479.66;4989327;28;20363;-70
2021/04/12 04:30:23;;;;;;;3.40;2.42;;;;;;;22.37;33.98;95477.19;4918219;29;20038;-70
2021/04/12 04:33:25;;;;;;;2.90;2.03;;;;;;;22.37;33.82;95477.91;4888102;29;20039;-70
2021/04/12 04:36:05;;;;;;;4.10;2.13;;;;;;;22.38;33.88;95473.97;4989254;28;20031;-71
2021/04/12 04:39:06;;;;;;;3.38;2.20;;;;;;;22.38;33.93;95484.13;4971706;28;20026;-70
2021/04/12 04:41:40;;;;;;;2.92;2.13;;;;;;;22.37;33.89;95477.19;4989205;28;20045;-71
2021/04/12 04:44:14;;;;;;;3.00;2.20;;;;;;;22.32;33.96;95473.22;4992042;28;20034;-70
2021/04/12 04:47:13;;;;;;;2.90;2.33;;;;;;;22.36;34.03;95475.69;4975604;28;20141;-71
2021/04/12 04:50:09;;;;;;;3.38;2.13;;;;;;;22.38;33.88;95484.84;4993264;28;20026;-70
2021/04/12 04:52:54;;;;;;;3.20;2.20;;;;;;;22.37;34.01;95483.34;4992835;28;20073;-70
2021/04/12 04:55:49;;;;;;;3.15;2.00;;;;;;;22.37;33.90;95477.19;4992853;28;20084;-71
2021/04/12 04:58:19;;;;;;;3.35;2.30;;;;;;;22.37;33.89;95472.47;4992861;28;20400;-71
2021/04/12 05:00:51;;;;;;;3.55;2.13;;;;;;;22.38;33.90;95484.13;4975305;28;20109;-71
2021/04/12 05:03:58;;;;;;;3.20;2.13;;;;;;;22.37;34.07;95477.91;4992644;28;20070;-70
2021/04/12 05:06:35;;;;;;;2.85;1.98;;;;;;;22.39;34.16;95488.31;4972647;28;20050;-71
2021/04/12 05:09:25;;;;;;;3.30;2.22;;;;;;;22.45;33.98;95495.25;4974910;28;20044;-68
2021/04/12 05:11:51;;;;;;;;;;;;;;;22.55;33.71;95499.22;4993132;28;20042;-68
2021/04/12 05:14:39;;;;;;;2.40;2.00;;;;;;;22.65;33.67;95495.06;4992666;28;19913;-72
2021/04/12 05:17:15;;;;;;;2.65;2.15;;;;;;;22.74;33.89;95492.09;4975102;28;20056;-70
2021/04/12 05:19:50;;;;;;;2.70;2.03;;;;;;;22.77;33.69;95493.84;4975078;28;20503;-70
2021/04/12 05:22:22;;;;;;;4.75;2.92;;;;;;;22.72;32.12;95483.66;4992311;28;20492;-71
2021/04/12 05:24:57;;;;;;;4.53;2.50;;;;;;;22.81;32.94;95483.44;4992109;28;20022;-70
2021/04/12 05:28:01;;;;;;;3.30;2.13;;;;;;;22.88;33.26;95477.50;4975122;28;20510;-72
2021/04/12 05:30:50;;;;;;;2.58;2.00;;;;;;;22.91;33.35;95478.00;4981527;28;20041;-72
2021/04/12 05:33:33;;;;;;;2.97;2.22;;;;;;;22.95;33.56;95472.34;4981591;28;20053;-71
2021/04/12 05:36:18;;;;;;;2.95;2.28;;;;;;;22.97;33.38;95476.06;5011356;28;20034;-73
2021/04/12 05:39:20;;;;;;;4.85;2.13;;;;;;;23.00;33.66;95458.72;5003832;28;20051;-75
2021/04/12 05:42:13;;;;;;;3.47;2.38;;;;;;;23.05;33.73;95473.59;5007936;28;20037;-74
2021/04/12 05:45:06;;;;;;;3.03;2.10;;;;;;;23.08;33.64;95465.16;5006602;28;20120;-74
2021/04/12 05:48:09;;;;;;;3.45;2.20;;;;;;;23.12;33.58;95471.09;5004760;28;20042;-75
2021/04/12 05:51:09;;;;;;;3.35;1.90;;;;;;;23.14;33.61;95462.44;5009526;28;20407;-76
2021/04/12 05:53:46;;;;;;;2.93;2.10;;;;;;;23.22;33.35;95464.16;4999758;28;20632;-71
2021/04/12 05:56:36;;;;;;;3.90;2.40;;;;;;;23.29;33.78;95463.66;5028562;28;20033;-72
2021/04/12 05:59:04;;;;;;;3.55;2.00;;;;;;;23.38;33.26;95472.28;5006336;28;20363;-75
2021/04/12 06:01:41;;;;;;;3.97;2.40;;;;;;;23.48;33.04;95467.31;5009590;28;20030;-73
2021/04/12 06:04:46;;;;;;;3.72;2.65;;;;;;;23.57;33.43;95467.81;4997839;28;20053;-74
2021/04/12 06:07:35;;;;;;;3.05;2.03;;;;;;;23.71;33.33;95468.81;5005093;28;20026;-73
2021/04/12 06:10:30;;;;;;;3.08;2.20;;;;;;;23.83;32.88;95473.72;5005063;28;20069;-74
2021/04/12 06:13:35;;;;;;;3.58;2.30;;;;;;;23.91;33.00;95469.94;4924222;28;20427;-74
2021/04/12 06:16:06;;;;;;;2.70;2.17;;;;;;;24.09;32.57;95469.38;4981859;28;20042;-76
2021/04/12 06:18:53;;;;;;;3.70;2.28;;;;;;;24.21;32.69;95454.44;4982506;28;20112;-76
2021/04/12 06:21:48;;;;;;;5.03;2.05;;;;;;;24.30;33.00;95459.59;4987749;28;20033;-70
2021/04/12 06:24:36;;;;;;;3.78;2.70;;;;;;;24.47;32.50;95471.22;4972636;28;20518;-74
2021/04/12 06:27:24;;;;;;;3.17;2.17;;;;;;;24.60;32.93;95468.66;4958299;28;20073;-71
2021/04/12 06:29:52;;;;;;;4.68;2.33;;;;;;;24.69;32.58;95471.06;4970890;28;20033;-73
2021/04/12 06:32:38;;;;;;;4.38;2.55;;;;;;;24.81;32.21;95467.03;4980172;28;20038;-71
2021/04/12 06:35:22;;;;;;;4.38;2.10;;;;;;;24.90;32.50;95473.66;4972655;28;20479;-71
2021/04/12 06:37:53;;;;;;;4.53;2.45;;;;;;;24.96;31.91;95474.38;4978103;28;20034;-71
2021/04/12 06:40:52;;;;;;;5.13;2.47;;;;;;;25.09;32.00;95471.06;4972369;28;20023;-69
2021/04/12 06:43:48;;;;;;;4.95;2.42;;;;;;;25.20;31.85;95466.25;4976304;28;20033;-69
2021/04/12 06:46:43;;;;;;;4.70;2.50;;;;;;;25.24;31.44;95472.16;4971735;28;20031;-69
2021/04/12 06:49:14;;;;;;;4.00;2.20;;;;;;;25.26;31.58;95461.47;4979240;28;20101;-69
2021/04/12 06:51:42;;;;;;;5.75;2.53;;;;;;;25.27;31.19;95460.19;4983204;28;20061;-69
2021/04/12 06:54:13;;;;;;;3.22;2.10;;;;;;;25.23;31.46;95459.75;4983533;28;20131;-68
2021/04/12 06:57:03;;;;;;;3.38;2.20;;;;;;;25.12;31.85;95465.31;4981205;28;20034;-68
2021/04/12 06:59:53;;;;;;;5.43;2.63;;;;;;;25.16;31.39;95465.03;4989567;28;20033;-70
2021/04/12 07:02:21;;;;;;;3.65;2.17;;;;;;;25.16;31.57;95471.25;4985723;28;20022;-70
2021/04/12 07:04:52;;;;;;;4.13;2.50;;;;;;;25.18;31.51;95474.19;4981150;28;20050;-70
2021/04/12 07:07:40;;;;;;;3.72;2.30;;;;;;;25.19;31.63;95464.75;4985636;28;20422;-67
2021/04/12 07:10:43;;;;;;;4.50;2.50;;;;;;;25.03;31.12;95441.03;4981730;28;20092;-68
2021/04/12 07:13:33;;;;;;;4.57;2.35;;;;;;;25.11;31.54;95458.38;4961495;28;20041;-68
2021/04/12 07:16:17;;;;;;;5.68;2.40;;;;;;;25.11;31.57;95463.84;4989536;28;20049;-68
2021/04/12 07:19:20;;;;;;;5.00;2.40;;;;;;;25.08;31.75;95467.59;4975634;28;20047;-69
2021/04/12 07:22:09;;;;;;;4.50;2.47;;;;;;;25.01;31.63;95465.41;4977184;28;20117;-71
2021/04/12 07:24:49;;;;;;;4.63;2.40;;;;;;;24.96;31.64;95463.44;4954494;28;20553;-70
2021/04/12 07:27:15;;;;;;;5.35;2.60;;;;;;;24.97;31.37;95459.44;4991619;28;20093;-71
2021/04/12 07:30:00;;;;;;;5.00;2.70;;;;;;;24.95;31.69;95461.94;4984740;28;20037;-70
2021/04/12 07:32:56;;;;;;;5.07;2.30;;;;;;;24.93;32.02;95458.97;5000373;28;20053;-70
2021/04/12 07:35:43;;;;;;;4.85;2.40;;;;;;;24.85;31.75;95458.03;4982040;28;20029;-67
2021/04/12 07:38:08;;;;;;;4.20;2.30;;;;;;;24.74;32.13;95448.44;4982595;28;20053;-67
2021/04/12 07:40:52;;;;;;;5.18;2.78;;;;;;;24.63;32.16;95445.78;4982646;28;20543;-69
2021/04/12 07:43:36;;;;;;;4.63;2.70;;;;;;;24.61;32.05;95442.84;4978699;28;20419;-68
2021/04/12 07:46:14;;;;;;;4.25;2.70;;;;;;;24.52;32.39;95434.94;4974714;28;20037;-68
2021/04/12 07:49:12;;;;;;;4.72;2.90;;;;;;;24.48;32.88;95439.94;4970063;28;20050;-68
2021/04/12 07:51:46;;;;;;;5.88;2.95;;;;;;;24.43;32.86;95432.53;4951767;28;20540;-68
2021/04/12 07:54:33;;;;;;;7.00;2.90;;;;;;;24.42;32.84;95428.31;4970436;28;20027;-68
2021/04/12 07:57:26;;;;;;;8.68;3.28;;;;;;;24.39;32.61;95421.13;4975360;28;20574;-68
2021/04/12 08:00:23;;;;;;;8.38;3.40;;;;;;;24.37;32.51;95418.16;4970172;28;20026;-69
2021/04/12 08:03:07;;;;;;;9.02;2.97;;;;;;;24.34;32.79;95418.44;4984871;28;20058;-68
2021/04/12 08:05:51;;;;;;;10.27;2.80;;;;;;;24.29;32.83;95417.19;4969236;28;20023;-69
2021/04/12 08:08:54;;;;;;;12.13;3.10;;;;;;;24.22;32.98;95409.53;4970342;28;20097;-69
2021/04/12 08:11:43;;;;;;;7.57;3.10;;;;;;;24.26;33.11;95418.22;4970082;28;20420;-68
2021/04/12 08:14:33;;;;;;;10.18;3.38;;;;;;;24.22;33.08;95412.25;4968588;28;20026;-68
2021/04/12 08:17:07;;;;;;;11.20;3.13;;;;;;;24.21;32.94;95413.50;4969419;28;20101;-68
2021/04/12 08:19:38;;;;;;;11.13;3.85;;;;;;;24.19;32.95;95413.28;4985810;28;20054;-68
2021/04/12 08:22:09;;;;;;;9.30;3.58;;;;;;;24.17;33.09;95415.00;4989320;28;20149;-68
2021/04/12 08:25:02;;;;;;;8.30;3.60;;;;;;;24.14;33.52;95411.31;4989402;28;20022;-68
2021/04/12 08:27:55;;;;;;;11.50;3.92;;;;;;;24.13;33.27;95404.38;4989259;28;20502;-68
2021/04/12 08:30:40;;;;;;;10.65;3.30;;;;;;;24.14;33.02;95400.41;4989422;28;20033;-68
2021/04/12 08:33:11;;;;;;;11.57;3.75;;;;;;;24.10;33.29;95405.38;4987882;28;20034;-68
2021/04/12 08:36:14;;;;;;;10.57;3.47;;;;;;;24.09;33.48;95398.44;4988892;28;20036;-71
2021/04/12 08:39:02;;;;;;;12.88;3.70;;;;;;;24.07;33.31;95400.22;4989392;28;20033;-71
2021/04/12 08:41:39;;;;;;;7.45;3.53;;;;;;;24.02;33.39;95393.53;5002976;28;20022;-71
2021/04/12 08:44:17;;;;;;;10.88;4.03;;;;;;;24.02;33.75;95396.25;4988981;28;20113;-71
2021/04/12 08:47:10;;;;;;;10.48;4.20;;;;;;;24.04;33.66;95385.56;4982645;28;20462;-70
2021/04/12 08:49:42;;;;;;;10.75;3.38;;;;;;;24.11;33.64;95389.75;5004517;28;20466;-71
2021/04/12 08:52:13;;;;;;;9.82;3.22;;;;;;;24.07;33.75;95384.56;4989127;28;20499;-71
2021/04/12 08:55:12;;;;;;;12.65;3.75;;;;;;;24.04;34.12;95385.56;4989197;28;20416;-72
2021/04/12 08:57:49;;;;;;;10.17;3.80;;;;;;;23.99;34.20;95372.72;4989212;28;20491;-72
2021/04/12 09:00:37;;;;;;;14.55;4.25;;;;;;;24.03;34.03;95373.16;4989186;28;20498;-72
2021/04/12 09:03:33;;;;;;;13.02;4.32;;;;;;;23.89;34.13;95349.69;4989245;28;20059;-71
2021/04/12 09:06:30;;;;;;;12.90;3.40;;;;;;;24.03;34.01;95367.72;4989194;28;20030;-71
2021/04/12 09:09:17;;;;;;;10.93;3.55;;;;;;;24.02;34.32;95363.53;4968040;28;20050;-74
2021/04/12 09:12:07;;;;;;;12.38;3.90;;;;;;;24.05;34.50;95359.78;4972441;28;20519;-75
2021/04/12 09:14:45;;;;;;;12.95;3.90;;;;;;;24.08;34.18;95353.31;4969702;28;20062;-70
2021/04/12 09:17:38;;;;;;;14.52;3.47;;;;;;;24.00;34.77;95352.34;4969659;28;20439;-71
2021/04/12 09:20:31;;;;;;;13.18;4.32;;;;;;;23.99;34.61;95350.88;4952819;28;20030;-71
2021/04/12 09:23:21;;;;;;;14.32;4.32;;;;;;;23.99;35.04;95348.16;4952836;28;20106;-71
2021/04/12 09:26:09;;;;;;;12.80;4.68;;;;;;;23.97;35.12;95347.19;4969691;28;20561;-71
2021/04/12 09:28:51;;;;;;;16.73;5.68;;;;;;;23.95;35.12;95334.03;4970416;28;20027;-71
2021/04/12 09:31:32;;;;;;;12.57;3.70;;;;;;;23.98;34.74;95338.50;4971960;28;20018;-71
2021/04/12 09:34:26;;;;;;;12.75;3.75;;;;;;;23.95;34.99;95341.50;4986688;28;20467;-71
2021/04/12 09:37:10;;;;;;;10.85;3.67;;;;;;;23.98;34.83;95335.03;4992898;28;20039;-71
2021/04/12 09:39:53;;;;;;;11.68;3.75;;;;;;;23.96;34.97;95327.34;4992479;28;20045;-71
2021/04/12 09:43:15;;;;;;;18.20;4.38;;;;;;;23.99;34.62;95328.31;4991956;28;20120;-72
2021/04/12 09:45:52;;;;;;;9.80;3.55;;;;;;;24.00;34.52;95319.63;4970027;28;20061;-71
2021/04/12 09:48:38;;;;;;;9.60;3.60;;;;;;;24.02;34.64;95317.16;4970615;28;20074;-71
2021/04/12 09:51:16;;;;;;;12.05;3.22;;;;;;;24.02;34.68;95308.97;4984155;28;20518;-71
2021/04/12 09:53:47;;;;;;;11.80;3.50;;;;;;;24.04;34.58;95313.91;4973223;28;20042;-71
2021/04/12 09:56:37;;;;;;;9.85;3.50;;;;;;;24.02;34.40;95306.22;4955221;28;20046;-72
2021/04/12 09:59:31;;;;;;;8.93;3.30;;;;;;;24.03;34.54;95306.97;4972390;28;20031;-72
2021/04/12 10:02:31;;;;;;;8.75;3.63;;;;;;;24.01;34.57;95304.75;4987445;28;20031;-72
2021/04/12 10:05:24;;;;;;;9.27;3.65;;;;;;;24.01;34.40;95304.75;4972727;28;20105;-71
2021/04/12 10:07:52;;;;;;;8.40;3.45;;;;;;;23.98;34.35;95289.38;4971485;28;20478;-71
2021/04/12 10:10:21;;;;;;;11.52;3.50;;;;;;;23.98;34.46;95294.84;4991736;28;20031;-73
2021/04/12 10:13:25;;;;;;;17.83;4.45;;;;;;;24.03;34.67;95291.31;5007042;28;20121;-72
2021/04/12 10:15:55;;;;;;;14.85;3.90;;;;;;;24.07;34.75;95291.81;4982391;28;20049;-71
2021/04/12 10:18:45;;;;;;;11.90;3.65;;;;;;;24.02;34.77;95278.94;4990437;28;20097;-71
2021/04/12 10:21:20;;;;;;;11.10;3.35;;;;;;;24.01;34.77;95272.00;5006798;28;20034;-71
2021/04/12 10:23:50;;;;;;;11.50;3.40;;;;;;;24.00;34.94;95275.97;4991346;28;20061;-71
2021/04/12 10:26:24;;;;;;;9.10;3.30;;;;;;;24.00;35.28;95270.50;4974234;28;20035;-71
2021/04/12 10:28:56;;;;;;;9.23;3.45;;;;;;;23.99;35.10;95269.03;4991557;28;20065;-71
2021/04/12 10:31:27;;;;;;;12.35;3.40;;;;;;;23.98;35.33;95262.09;4991947;28;20026;-71
2021/04/12 10:34:04;;;;;;;11.15;3.58;;;;;;;24.04;35.08;95270.25;5006192;28;20473;-71
2021/04/12 10:36:45;;;;;;;9.90;3.25;;;;;;;24.00;35.07;95270.50;4990991;28;20027;-71
2021/04/12 10:39:30;;;;;;;12.88;3.42;;;;;;;23.99;35.42;95258.13;4991529;28;20519;-76
2021/04/12 10:42:11;;;;;;;7.57;3.55;;;;;;;24.07;35.52;95256.34;4987466;28;20510;-77
2021/04/12 10:44:51;;;;;;;12.07;3.65;;;;;;;24.07;35.64;95259.06;4986128;28;20030;-73
2021/04/12 10:47:22;;;;;;;12.02;3.30;;;;;;;23.89;35.25;95232.41;4981769;28;20022;-73
2021/04/12 10:50:09;;;;;;;13.88;3.65;;;;;;;24.06;35.35;95257.56;5002330;28;20049;-72
2021/04/12 10:52:53;;;;;;;8.90;3.03;;;;;;;24.10;35.37;95247.13;5000394;28;20030;-71
2021/04/12 10:56:01;;;;;;;9.70;3.30;;;;;;;24.10;35.67;95241.66;4986534;28;20026;-71
2021/04/12 10:59:14;;;;;;;8.13;3.10;;;;;;;24.18;35.14;95231.69;4979774;28;20117;-70
2021/04/12 11:01:50;;;;;;;9.70;3.58;;;;;;;24.24;35.62;95237.09;4941999;28;20058;-70
2021/04/12 11:04:53;;;;;;;12.00;3.30;;;;;;;24.35;34.92;95232.31;5000638;28;20054;-69
2021/04/12 11:07:23;;;;;;;7.43;3.25;;;;;;;24.42;34.68;95220.81;4958175;28;20058;-71
2021/04/12 11:10:10;;;;;;;6.63;2.70;;;;;;;24.54;34.85;95224.94;4965798;28;20027;-70
2021/04/12 11:12:46;;;;;;;7.97;3.28;;;;;;;24.59;34.60;95222.16;4962861;28;20039;-71
2021/04/12 11:15:21;;;;;;;8.70;3.30;;;;;;;24.71;34.63;95211.84;4963747;28;20031;-71
2021/04/12 11:18:18;;;;;;;6.35;3.17;;;;;;;24.82;34.51;95209.00;4972292;28;20512;-70
2021/04/12 11:20:52;;;;;;;8.02;3.10;;;;;;;24.79;34.44;95179.97;4962043;28;20065;-71
2021/04/12 11:23:49;;;;;;;10.73;3.08;;;;;;;24.98;33.81;95193.16;4962846;28;20070;-71
2021/04/12 11:26:28;;;;;;;8.63;2.95;;;;;;;25.03;33.64;95195.09;4969342;28;20022;-71
2021/04/12 11:29:30;;;;;;;7.57;2.90;;;;;;;25.07;33.80;95206.47;4974241;28;20059;-71
2021/04/12 11:32:13;;;;;;;7.55;3.08;;;;;;;25.14;33.89;95194.97;4959885;28;20047;-71
2021/04/12 11:34:50;;;;;;;5.75;2.63;;;;;;;25.16;33.71;95181.50;4966201;28;20022;-71
2021/04/12 11:37:33;;;;;;;7.07;2.72;;;;;;;25.19;33.20;95185.94;4983878;28;20039;-71
2021/04/12 11:40:04;;;;;;;6.40;2.78;;;;;;;25.23;33.41;95186.41;4962807;28;20022;-71
2021/04/12 11:42:32;;;;;;;9.52;3.13;;;;;;;25.22;33.05;95184.19;4966289;28;20420;-71
2021/04/12 11:45:06;;;;;;;7.65;3.15;;;;;;;25.05;33.14;95159.81;4965012;28;20110;-71
2021/04/12 11:47:50;;;;;;;8.00;3.05;;;;;;;25.11;33.30;95185.06;4983526;28;20038;-70
2021/04/12 11:50:30;;;;;;;6.60;3.30;;;;;;;25.07;33.42;95179.16;4968376;28;20110;-71
2021/04/12 11:53:11;;;;;;;7.65;3.60;;;;;;;25.09;33.08;95178.63;4968001;28;20491;-71
2021/04/12 11:55:38;;;;;;;10.73;3.40;;;;;;;25.12;32.86;95167.41;4967746;28;20073;-71
2021/04/12 11:58:27;;;;;;;8.60;3.10;;;;;;;25.06;33.17;95166.00;5000493;28;20066;-71
2021/04/12 12:00:56;;;;;;;8.30;3.03;;;;;;;25.01;33.29;95164.81;4969139;28;20096;-71
2021/04/12 12:03:47;;;;;;;7.40;2.97;;;;;;;24.99;33.45;95161.88;4976986;28;20054;-71
2021/04/12 12:06:32;;;;;;;6.50;2.92;;;;;;;24.99;33.06;95156.41;4976887;28;20030;-70
2021/04/12 12:09:10;;;;;;;6.82;2.90;;;;;;;24.93;33.40;95157.69;4993338;28;20029;-71
2021/04/12 12:12:03;;;;;;;4.57;2.50;;;;;;;24.92;32.98;95156.94;4975445;28;20089;-70
2021/04/12 12:14:46;;;;;;;8.25;3.60;;;;;;;24.80;33.49;95137.72;4992803;28;20026;-70
2021/04/12 12:17:20;;;;;;;7.00;2.88;;;;;;;24.86;33.21;95148.09;4954934;28;20049;-70
2021/04/12 12:19:46;;;;;;;8.45;3.30;;;;;;;24.84;33.45;95139.69;5000068;28;20034;-70
2021/04/12 12:22:20;;;;;;;5.00;3.08;;;;;;;24.82;33.51;95135.25;4997534;28;20031;-70
2021/04/12 12:25:09;;;;;;;4.80;2.60;;;;;;;24.81;33.46;95133.75;4984174;28;20563;-71
2021/04/12 12:27:38;;;;;;;6.93;2.75;;;;;;;24.81;33.24;95131.03;4986298;28;20033;-71
2021/04/12 12:30:06;;;;;;;5.35;3.10;;;;;;;24.74;33.49;95123.41;4969579;28;20143;-70
2021/04/12 12:32:32;;;;;;;7.00;2.90;;;;;;;24.77;33.32;95133.31;4992886;28;20041;-70
2021/04/12 12:35:18;;;;;;;5.88;3.20;;;;;;;24.68;33.19;95098.16;4988316;28;20410;-72
2021/04/12 12:38:05;;;;;;;5.45;2.63;;;;;;;24.82;33.61;95114.84;4988101;28;20034;-74
2021/04/12 12:40:34;;;;;;;6.90;3.10;;;;;;;24.89;33.71;95114.28;4989456;28;20093;-72
2021/04/12 12:43:04;;;;;;;6.47;2.95;;;;;;;24.88;34.34;95103.88;5004573;28;20030;-74
2021/04/12 12:45:39;;;;;;;7.25;3.00;;;;;;;24.91;34.02;95106.28;5004540;28;20073;-72
2021/04/12 12:48:12;;;;;;;4.15;2.17;;;;;;;24.82;33.97;95093.00;4989053;28;20108;-70
2021/04/12 12:50:44;;;;;;;6.97;2.70;;;;;;;24.85;34.63;95097.44;5002969;28;20043;-71
2021/04/12 12:53:13;;;;;;;6.22;2.83;;;;;;;24.49;34.14;95048.28;5004045;28;20502;-71
2021/04/12 12:55:43;;;;;;;5.15;2.72;;;;;;;24.77;34.32;95093.09;5003829;28;20113;-70